Time;durP1;ratioP1;P1;durP2;ratioP2;P2;SDS_P1;SDS_P2;PMS_P1;PMS_P2;Temp;Humidity;BMP_temperature;BMP_pressure;BME280_temperature;BME280_humidity;BME280_pressure;Samples;Min_cycle;Max_cycle;Signal;HPM_P1;HPM_P2
2023/08/26 00:01:30;;;;;;;0.95;0.90;;;;;;;;;;5010672;28;20728;-79
2023/08/26 00:03:56;;;;;;;1.55;1.00;;;;;;;;;;5011685;28;20137;-79
2023/08/26 00:06:23;;;;;;;1.42;1.10;;;;;;;;;;4999604;28;20069;-78
2023/08/26 00:08:52;;;;;;;0.88;0.82;;;;;;;;;;5009771;28;20022;-79
2023/08/26 00:11:18;;;;;;;1.02;0.82;;;;;;;;;;5011024;28;20037;-78
2023/08/26 00:13:44;;;;;;;1.08;0.98;;;;;;;;;;5008366;28;20032;-78
2023/08/26 00:16:12;;;;;;;1.42;1.10;;;;;;;;;;5009123;28;20030;-79
2023/08/26 00:18:38;;;;;;;1.98;1.25;;;;;;;;;;5008592;28;20041;-78
2023/08/26 00:21:04;;;;;;;0.82;0.70;;;;;;;;;;5005669;28;20030;-79
2023/08/26 00:23:33;;;;;;;1.48;1.08;;;;;;;;;;5009936;28;20080;-79
2023/08/26 00:26:01;;;;;;;0.95;0.80;;;;;;;;;;5006405;28;20068;-79
2023/08/26 00:28:26;;;;;;;1.60;1.13;;;;;;;;;;5009548;28;20390;-79
2023/08/26 00:30:59;;;;;;;1.02;0.90;;;;;;;;;;5006042;28;20026;-79
2023/08/26 00:33:25;;;;;;;1.73;0.80;;;;;;;;;;5007174;28;20029;-79
2023/08/26 00:35:51;;;;;;;1.05;0.85;;;;;;;;;;5009530;28;20024;-78
2023/08/26 00:38:17;;;;;;;0.80;0.80;;;;;;;;;;5010544;28;20109;-79
2023/08/26 00:40:43;;;;;;;1.60;0.80;;;;;;;;;;5006800;28;20504;-79
2023/08/26 00:43:09;;;;;;;0.60;0.60;;;;;;;;;;5010307;28;20026;-78
2023/08/26 00:45:43;;;;;;;2.03;1.10;;;;;;;;;;5009167;28;20034;-79
2023/08/26 00:48:11;;;;;;;2.92;1.08;;;;;;;;;;5009137;28;20034;-79
2023/08/26 00:50:37;;;;;;;1.10;1.00;;;;;;;;;;5005918;28;20036;-79
2023/08/26 00:53:03;;;;;;;1.35;1.05;;;;;;;;;;5009015;28;20030;-79
2023/08/26 00:55:30;;;;;;;0.80;0.80;;;;;;;;;;5019937;28;20034;-79
2023/08/26 00:57:57;;;;;;;0.80;0.77;;;;;;;;;;5006992;28;20113;-78
2023/08/26 01:00:23;;;;;;;1.08;1.00;;;;;;;;;;5009317;28;20049;-79
2023/08/26 01:02:50;;;;;;;1.75;1.02;;;;;;;;;;5005461;28;20042;-78
2023/08/26 01:05:16;;;;;;;0.98;0.90;;;;;;;;;;5006914;28;20030;-79
2023/08/26 01:07:42;;;;;;;2.83;1.13;;;;;;;;;;5000236;28;20036;-79
2023/08/26 01:10:09;;;;;;;0.70;0.70;;;;;;;;;;5009120;28;20124;-79
2023/08/26 01:12:41;;;;;;;1.38;0.82;;;;;;;;;;5006565;28;20041;-78
2023/08/26 01:15:11;;;;;;;0.60;0.60;;;;;;;;;;5007856;28;20133;-79
2023/08/26 01:17:37;;;;;;;0.85;0.85;;;;;;;;;;5006987;28;20486;-79
2023/08/26 01:20:03;;;;;;;0.93;0.88;;;;;;;;;;5008912;28;20458;-79
2023/08/26 01:22:30;;;;;;;1.75;0.70;;;;;;;;;;5006372;28;20116;-79
2023/08/26 01:24:56;;;;;;;1.15;0.93;;;;;;;;;;5007326;28;20422;-78
2023/08/26 01:27:22;;;;;;;0.82;0.82;;;;;;;;;;5012565;28;20541;-79
2023/08/26 01:29:48;;;;;;;1.05;0.95;;;;;;;;;;5005333;28;20073;-78
2023/08/26 01:32:33;;;;;;;1.23;1.08;;;;;;;;;;5006023;28;20379;-79
2023/08/26 01:34:59;;;;;;;5.97;0.98;;;;;;;;;;5008572;28;20034;-78
2023/08/26 01:37:26;;;;;;;0.85;0.85;;;;;;;;;;5007832;28;20040;-78
2023/08/26 01:39:53;;;;;;;3.05;0.90;;;;;;;;;;5004935;28;20030;-79
2023/08/26 01:42:21;;;;;;;1.08;1.00;;;;;;;;;;5007216;28;20402;-78
2023/08/26 01:44:47;;;;;;;1.67;1.00;;;;;;;;;;5006434;28;20030;-79
2023/08/26 01:47:13;;;;;;;1.05;0.73;;;;;;;;;;5007733;28;20031;-78
2023/08/26 01:49:39;;;;;;;1.25;0.90;;;;;;;;;;5007899;28;20021;-78
2023/08/26 01:52:05;;;;;;;1.10;0.68;;;;;;;;;;5006419;28;20056;-79
2023/08/26 01:54:31;;;;;;;1.10;0.90;;;;;;;;;;5007312;28;20041;-79
2023/08/26 01:56:57;;;;;;;0.80;0.80;;;;;;;;;;5002926;28;20037;-78
2023/08/26 01:59:23;;;;;;;1.05;0.80;;;;;;;;;;5003310;28;20037;-79
2023/08/26 02:01:49;;;;;;;0.80;0.80;;;;;;;;;;5005175;28;20042;-79
2023/08/26 02:04:15;;;;;;;0.95;0.68;;;;;;;;;;5009047;28;20030;-79
2023/08/26 02:06:42;;;;;;;1.20;0.90;;;;;;;;;;5004937;28;20026;-79
2023/08/26 02:09:08;;;;;;;1.02;0.85;;;;;;;;;;5005787;28;20026;-78
2023/08/26 02:11:34;;;;;;;1.00;0.90;;;;;;;;;;5007592;28;20037;-79
2023/08/26 02:14:00;;;;;;;1.00;0.73;;;;;;;;;;5006466;28;20026;-78
2023/08/26 02:16:26;;;;;;;0.80;0.70;;;;;;;;;;5006906;28;20109;-79
2023/08/26 02:18:52;;;;;;;4.43;0.80;;;;;;;;;;5022681;28;20404;-78
2023/08/26 02:21:18;;;;;;;1.02;0.95;;;;;;;;;;5004648;28;20038;-79
2023/08/26 02:23:44;;;;;;;1.25;1.15;;;;;;;;;;5008433;28;20491;-78
2023/08/26 02:26:10;;;;;;;1.25;1.05;;;;;;;;;;5008083;28;20026;-79
2023/08/26 02:28:36;;;;;;;1.02;0.90;;;;;;;;;;5005496;28;20026;-78
2023/08/26 02:31:05;;;;;;;1.08;0.82;;;;;;;;;;5005666;28;20104;-78
2023/08/26 02:33:31;;;;;;;1.88;1.00;;;;;;;;;;5006465;28;20108;-78
2023/08/26 02:35:57;;;;;;;1.40;0.93;;;;;;;;;;5005577;28;20033;-79
2023/08/26 02:38:24;;;;;;;1.40;0.95;;;;;;;;;;5007120;28;20026;-79
2023/08/26 02:40:53;;;;;;;5.28;1.15;;;;;;;;;;5006452;28;20045;-78
2023/08/26 02:43:20;;;;;;;4.95;0.90;;;;;;;;;;5006692;28;20026;-78
2023/08/26 02:45:46;;;;;;;0.80;0.75;;;;;;;;;;5005683;28;20033;-79
2023/08/26 02:48:12;;;;;;;0.77;0.77;;;;;;;;;;5008174;28;20161;-79
2023/08/26 02:50:38;;;;;;;1.15;1.05;;;;;;;;;;5007075;28;20105;-78
2023/08/26 02:53:04;;;;;;;1.02;0.85;;;;;;;;;;5000837;28;20030;-79
2023/08/26 02:55:30;;;;;;;0.90;0.68;;;;;;;;;;5006500;28;20201;-78
2023/08/26 02:57:56;;;;;;;1.40;0.90;;;;;;;;;;5007541;28;20037;-79
2023/08/26 03:00:22;;;;;;;0.80;0.70;;;;;;;;;;5005576;28;20041;-79
2023/08/26 03:02:48;;;;;;;0.95;0.82;;;;;;;;;;5006619;28;20033;-79
2023/08/26 03:05:14;;;;;;;0.80;0.80;;;;;;;;;;5006201;28;20407;-79
2023/08/26 03:07:40;;;;;;;6.28;0.80;;;;;;;;;;5007420;28;20113;-79
2023/08/26 03:10:06;;;;;;;1.23;1.13;;;;;;;;;;5007153;28;20117;-79
2023/08/26 03:12:32;;;;;;;0.73;0.68;;;;;;;;;;5004941;28;20393;-79
2023/08/26 03:14:58;;;;;;;1.20;0.90;;;;;;;;;;5006661;28;20479;-79
2023/08/26 03:17:24;;;;;;;0.50;0.50;;;;;;;;;;5008090;28;20041;-79
2023/08/26 03:19:50;;;;;;;0.77;0.75;;;;;;;;;;5006857;28;20034;-79
2023/08/26 03:22:16;;;;;;;1.05;0.95;;;;;;;;;;5004039;28;20026;-79
2023/08/26 03:24:42;;;;;;;6.13;0.80;;;;;;;;;;5003838;28;20025;-79
2023/08/26 03:27:08;;;;;;;1.20;0.70;;;;;;;;;;5005477;28;20034;-79
2023/08/26 03:29:34;;;;;;;1.05;0.90;;;;;;;;;;5005128;28;20026;-79
2023/08/26 03:32:00;;;;;;;3.42;0.93;;;;;;;;;;5006372;28;20045;-79
2023/08/26 03:34:26;;;;;;;0.80;0.80;;;;;;;;;;5005624;28;20394;-78
2023/08/26 03:36:52;;;;;;;0.70;0.70;;;;;;;;;;5005410;28;20113;-79
2023/08/26 03:39:18;;;;;;;0.70;0.70;;;;;;;;;;5005850;28;20115;-79
2023/08/26 03:41:44;;;;;;;1.05;0.95;;;;;;;;;;4999043;28;20022;-79
2023/08/26 03:44:10;;;;;;;1.17;1.00;;;;;;;;;;5005615;28;20030;-78
2023/08/26 03:46:36;;;;;;;0.98;0.90;;;;;;;;;;5006053;28;20096;-79
2023/08/26 03:49:02;;;;;;;1.50;1.00;;;;;;;;;;5005143;28;20018;-79
2023/08/26 03:51:28;;;;;;;0.88;0.77;;;;;;;;;;5004291;28;20490;-79
2023/08/26 03:53:54;;;;;;;1.60;0.88;;;;;;;;;;5006044;28;20053;-79
2023/08/26 03:56:20;;;;;;;0.98;0.88;;;;;;;;;;5004948;28;20026;-78
2023/08/26 03:58:46;;;;;;;1.20;1.02;;;;;;;;;;5007112;28;20076;-79
2023/08/26 04:01:12;;;;;;;2.83;0.82;;;;;;;;;;5002634;28;20052;-79
2023/08/26 04:03:38;;;;;;;1.20;0.80;;;;;;;;;;4999437;28;20018;-80
2023/08/26 04:06:05;;;;;;;1.02;0.88;;;;;;;;;;5021695;28;20025;-79
2023/08/26 04:08:31;;;;;;;0.73;0.70;;;;;;;;;;5005550;28;20026;-79
2023/08/26 04:10:58;;;;;;;1.30;1.20;;;;;;;;;;5005200;28;20052;-79
2023/08/26 04:13:25;;;;;;;1.08;0.98;;;;;;;;;;5005467;28;20033;-79
2023/08/26 04:15:56;;;;;;;1.67;1.10;;;;;;;;;;5001933;28;20058;-79
2023/08/26 04:18:22;;;;;;;0.95;0.80;;;;;;;;;;5004297;28;20077;-78
2023/08/26 04:20:52;;;;;;;1.23;0.90;;;;;;;;;;5002552;28;20026;-79
2023/08/26 04:23:18;;;;;;;1.30;0.80;;;;;;;;;;4999007;28;20030;-79
2023/08/26 04:25:44;;;;;;;2.45;0.90;;;;;;;;;;5002417;28;20399;-78
2023/08/26 04:28:11;;;;;;;2.70;1.50;;;;;;;;;;5003025;28;20026;-79
2023/08/26 04:30:37;;;;;;;1.08;0.82;;;;;;;;;;5004330;28;20443;-78
2023/08/26 04:33:04;;;;;;;0.60;0.60;;;;;;;;;;5002201;28;20040;-79
2023/08/26 04:35:30;;;;;;;3.08;1.02;;;;;;;;;;5001410;28;20034;-79
2023/08/26 04:37:56;;;;;;;0.85;0.82;;;;;;;;;;5006887;28;20109;-79
2023/08/26 04:40:22;;;;;;;2.03;1.30;;;;;;;;;;4994838;28;20478;-79
2023/08/26 04:42:48;;;;;;;3.83;1.20;;;;;;;;;;5007749;28;20114;-79
2023/08/26 04:45:15;;;;;;;2.08;1.10;;;;;;;;;;5004144;28;20061;-79
2023/08/26 04:47:44;;;;;;;2.80;0.90;;;;;;;;;;5006790;28;20399;-79
2023/08/26 04:50:11;;;;;;;4.90;1.00;;;;;;;;;;5009076;28;20034;-79
2023/08/26 04:52:39;;;;;;;1.15;1.00;;;;;;;;;;5009154;28;20041;-79
2023/08/26 04:55:05;;;;;;;1.60;1.30;;;;;;;;;;5005839;28;20129;-78
2023/08/26 04:57:31;;;;;;;1.25;0.82;;;;;;;;;;5006503;28;20037;-79
2023/08/26 04:59:57;;;;;;;1.10;0.90;;;;;;;;;;5001223;28;20035;-79
2023/08/26 05:02:23;;;;;;;1.58;1.35;;;;;;;;;;5009966;28;20044;-79
2023/08/26 05:04:50;;;;;;;1.23;0.90;;;;;;;;;;5006612;28;20466;-78
2023/08/26 05:07:16;;;;;;;0.98;0.85;;;;;;;;;;5002537;28;20033;-79
2023/08/26 05:09:42;;;;;;;2.38;1.08;;;;;;;;;;5005289;28;20038;-79
2023/08/26 05:12:08;;;;;;;3.47;0.80;;;;;;;;;;5005401;28;20034;-78
2023/08/26 05:14:35;;;;;;;1.75;1.08;;;;;;;;;;5007777;28;20029;-79
2023/08/26 05:17:01;;;;;;;2.28;1.08;;;;;;;;;;4998980;28;20041;-79
2023/08/26 05:19:26;;;;;;;2.85;0.98;;;;;;;;;;5001079;28;20338;-78
2023/08/26 05:21:52;;;;;;;1.13;1.00;;;;;;;;;;5005941;28;20041;-78
2023/08/26 05:24:18;;;;;;;1.23;0.82;;;;;;;;;;5005101;28;20030;-79
2023/08/26 05:26:44;;;;;;;0.85;0.85;;;;;;;;;;5002088;28;20030;-80
2023/08/26 05:29:10;;;;;;;0.95;0.95;;;;;;;;;;5007112;28;20030;-79
2023/08/26 05:31:37;;;;;;;1.63;1.02;;;;;;;;;;5001897;28;20025;-78
2023/08/26 05:34:03;;;;;;;1.15;1.05;;;;;;;;;;5000776;28;20141;-78
2023/08/26 05:36:29;;;;;;;2.78;1.23;;;;;;;;;;5001962;28;20038;-79
2023/08/26 05:38:55;;;;;;;1.25;1.13;;;;;;;;;;5007243;28;20033;-79
2023/08/26 05:41:21;;;;;;;1.48;0.98;;;;;;;;;;5004610;28;20491;-79
2023/08/26 05:43:47;;;;;;;1.80;1.00;;;;;;;;;;5004637;28;20029;-78
2023/08/26 05:46:13;;;;;;;1.33;1.00;;;;;;;;;;5004422;28;20030;-79
2023/08/26 05:48:39;;;;;;;1.92;1.13;;;;;;;;;;5007203;28;20013;-79
2023/08/26 05:51:05;;;;;;;1.55;0.70;;;;;;;;;;5007049;28;20084;-78
2023/08/26 05:53:31;;;;;;;2.70;1.30;;;;;;;;;;5003467;28;20014;-79
2023/08/26 05:55:58;;;;;;;0.80;0.70;;;;;;;;;;5004786;28;20740;-78
2023/08/26 05:58:24;;;;;;;1.83;1.23;;;;;;;;;;5002926;28;20663;-79
2023/08/26 06:00:50;;;;;;;2.35;1.35;;;;;;;;;;5004521;28;20029;-79
2023/08/26 06:03:16;;;;;;;2.08;0.90;;;;;;;;;;5002721;28;20482;-78
2023/08/26 06:05:42;;;;;;;1.40;1.10;;;;;;;;;;5002853;28;20446;-79
2023/08/26 06:08:09;;;;;;;5.72;1.10;;;;;;;;;;5004724;28;20043;-79
2023/08/26 06:10:35;;;;;;;1.35;1.17;;;;;;;;;;5004090;28;20018;-79
2023/08/26 06:13:01;;;;;;;6.10;1.20;;;;;;;;;;4996591;28;20097;-79
2023/08/26 06:15:26;;;;;;;1.20;0.95;;;;;;;;;;4999358;28;20022;-79
2023/08/26 06:17:52;;;;;;;0.98;0.82;;;;;;;;;;4999865;28;20036;-78
2023/08/26 06:20:18;;;;;;;1.50;0.93;;;;;;;;;;5002964;28;20486;-79
2023/08/26 06:22:45;;;;;;;1.40;1.25;;;;;;;;;;4998011;28;20498;-79
2023/08/26 06:25:11;;;;;;;1.60;1.38;;;;;;;;;;4995914;28;20847;-79
2023/08/26 06:27:38;;;;;;;1.30;1.20;;;;;;;;;;5004395;28;20471;-78
2023/08/26 06:30:04;;;;;;;1.60;1.17;;;;;;;;;;5007172;28;20072;-79
2023/08/26 06:32:40;;;;;;;1.80;1.20;;;;;;;;;;5006364;28;20041;-78
2023/08/26 06:35:06;;;;;;;1.42;1.00;;;;;;;;;;5017680;28;20030;-79
2023/08/26 06:37:32;;;;;;;1.67;1.13;;;;;;;;;;5007268;28;20622;-79
2023/08/26 06:39:58;;;;;;;0.90;0.90;;;;;;;;;;5008116;28;20549;-79
2023/08/26 06:42:24;;;;;;;5.85;1.38;;;;;;;;;;5007947;28;20080;-79
2023/08/26 06:44:50;;;;;;;1.27;1.10;;;;;;;;;;5005515;28;20022;-79
2023/08/26 06:47:16;;;;;;;2.85;1.65;;;;;;;;;;5003899;28;20495;-79
2023/08/26 06:49:42;;;;;;;1.67;1.20;;;;;;;;;;5008353;28;20382;-79
2023/08/26 06:52:14;;;;;;;1.60;1.02;;;;;;;;;;5006436;28;20405;-80
2023/08/26 06:54:40;;;;;;;1.08;0.82;;;;;;;;;;5006646;28;20057;-83
2023/08/26 06:57:06;;;;;;;1.50;0.90;;;;;;;;;;5003839;28;20038;-78
2023/08/26 06:59:32;;;;;;;1.08;0.95;;;;;;;;;;5004881;28;20080;-77
2023/08/26 07:01:58;;;;;;;0.93;0.93;;;;;;;;;;5008833;28;20501;-84
2023/08/26 07:04:25;;;;;;;1.23;1.13;;;;;;;;;;5008141;28;20036;-82
2023/08/26 07:06:51;;;;;;;2.38;1.05;;;;;;;;;;5003041;28;20477;-82
2023/08/26 07:09:17;;;;;;;4.97;1.52;;;;;;;;;;5003133;28;20053;-81
2023/08/26 07:11:43;;;;;;;0.80;0.80;;;;;;;;;;5005203;28;20034;-84
2023/08/26 07:14:09;;;;;;;1.55;1.10;;;;;;;;;;5007536;28;20030;-83
2023/08/26 07:16:35;;;;;;;1.10;1.00;;;;;;;;;;5005667;28;20029;-83
2023/08/26 07:19:00;;;;;;;2.38;1.33;;;;;;;;;;5020290;28;20033;-83
2023/08/26 07:21:26;;;;;;;4.78;1.50;;;;;;;;;;5003807;28;20029;-83
2023/08/26 07:23:52;;;;;;;1.75;1.30;;;;;;;;;;5008041;28;20509;-84
2023/08/26 07:26:18;;;;;;;1.75;1.42;;;;;;;;;;5003915;28;20077;-82
2023/08/26 07:28:46;;;;;;;1.30;0.95;;;;;;;;;;4988882;28;20052;-82
2023/08/26 07:31:12;;;;;;;4.25;1.20;;;;;;;;;;4997450;28;20049;-82
2023/08/26 07:33:38;;;;;;;1.80;1.27;;;;;;;;;;4997390;28;20026;-83
2023/08/26 07:36:06;;;;;;;2.22;1.52;;;;;;;;;;5004185;28;20034;-81
2023/08/26 07:38:32;;;;;;;1.88;1.50;;;;;;;;;;5001613;28;20053;-83
2023/08/26 07:40:57;;;;;;;2.40;1.65;;;;;;;;;;5000624;28;20537;-81
2023/08/26 07:43:24;;;;;;;1.85;1.55;;;;;;;;;;4995913;28;20767;-82
2023/08/26 07:45:50;;;;;;;1.30;1.20;;;;;;;;;;5005209;28;20021;-82
2023/08/26 07:48:16;;;;;;;1.65;1.27;;;;;;;;;;5004231;28;20117;-88
2023/08/26 07:50:42;;;;;;;2.03;1.40;;;;;;;;;;5005972;28;20212;-86
2023/08/26 07:53:08;;;;;;;1.83;1.52;;;;;;;;;;5002567;28;20034;-79
2023/08/26 07:55:34;;;;;;;1.67;1.15;;;;;;;;;;5003303;28;20029;-83
2023/08/26 07:58:00;;;;;;;5.07;1.58;;;;;;;;;;5003137;28;20026;-80
2023/08/26 08:00:26;;;;;;;2.15;1.27;;;;;;;;;;5001842;28;20149;-86
2023/08/26 08:02:54;;;;;;;1.85;1.35;;;;;;;;;;4998606;28;20034;-85
2023/08/26 08:05:20;;;;;;;2.08;1.55;;;;;;;;;;5001422;28;20029;-85
2023/08/26 08:07:46;;;;;;;2.05;1.35;;;;;;;;;;5004799;28;20372;-85
2023/08/26 08:10:12;;;;;;;2.15;1.67;;;;;;;;;;5006942;28;20096;-86
2023/08/26 08:12:38;;;;;;;1.95;1.15;;;;;;;;;;5007726;28;20068;-85
2023/08/26 08:15:05;;;;;;;2.10;1.40;;;;;;;;;;5005386;28;20033;-85
2023/08/26 08:17:31;;;;;;;1.88;1.35;;;;;;;;;;5007912;28;20121;-85
2023/08/26 08:19:58;;;;;;;4.63;1.80;;;;;;;;;;4994129;28;20066;-85
2023/08/26 08:22:37;;;;;;;4.32;1.50;;;;;;;;;;5012023;28;20134;-85
2023/08/26 08:25:04;;;;;;;2.40;1.35;;;;;;;;;;5009640;28;20037;-78
2023/08/26 08:27:30;;;;;;;2.30;1.58;;;;;;;;;;5010640;28;20042;-87
2023/08/26 08:29:57;;;;;;;2.38;1.35;;;;;;;;;;5003381;28;20390;-85
2023/08/26 08:32:23;;;;;;;1.60;1.38;;;;;;;;;;4996198;28;20117;-85
2023/08/26 08:34:49;;;;;;;1.92;1.60;;;;;;;;;;4993063;28;20019;-84
2023/08/26 08:37:15;;;;;;;2.38;1.98;;;;;;;;;;4992970;28;20025;-86
2023/08/26 08:39:41;;;;;;;2.17;1.40;;;;;;;;;;4997905;28;20034;-87
2023/08/26 08:42:09;;;;;;;2.15;1.60;;;;;;;;;;5003074;28;20037;-87
2023/08/26 08:44:37;;;;;;;1.60;1.48;;;;;;;;;;5005389;28;20071;-88
2023/08/26 08:47:04;;;;;;;1.77;1.38;;;;;;;;;;5012187;28;20038;-87
2023/08/26 08:49:30;;;;;;;2.10;1.63;;;;;;;;;;5012270;28;20040;-90
2023/08/26 08:51:57;;;;;;;3.60;1.85;;;;;;;;;;5009577;28;20420;-87
2023/08/26 08:54:24;;;;;;;2.65;1.67;;;;;;;;;;5003329;28;20033;-87
2023/08/26 08:56:50;;;;;;;2.05;1.50;;;;;;;;;;5011897;28;20034;-86
2023/08/26 08:59:16;;;;;;;2.50;1.55;;;;;;;;;;4996874;28;20018;-87
2023/08/26 09:01:42;;;;;;;2.63;1.60;;;;;;;;;;5008111;28;20048;-87
2023/08/26 09:04:09;;;;;;;1.70;1.55;;;;;;;;;;5004514;28;20023;-86
2023/08/26 09:06:35;;;;;;;1.85;1.50;;;;;;;;;;5005869;28;20757;-87
2023/08/26 09:09:02;;;;;;;2.72;1.67;;;;;;;;;;5008923;28;20022;-87
2023/08/26 09:11:28;;;;;;;2.08;1.40;;;;;;;;;;5008687;28;20038;-79
2023/08/26 09:13:54;;;;;;;2.00;1.58;;;;;;;;;;4998527;28;20033;-77
2023/08/26 09:16:38;;;;;;;2.15;1.40;;;;;;;;;;4998601;28;20103;-81
2023/08/26 09:19:11;;;;;;;1.77;1.38;;;;;;;;;;5006493;28;20033;-79
2023/08/26 09:21:40;;;;;;;2.15;1.58;;;;;;;;;;5003072;28;20026;-75
2023/08/26 09:24:11;;;;;;;4.57;1.77;;;;;;;;;;5006185;28;20076;-82
2023/08/26 09:26:37;;;;;;;1.40;1.30;;;;;;;;;;5002727;28;20022;-76
2023/08/26 09:29:11;;;;;;;1.27;1.13;;;;;;;;;;5006396;28;20044;-76
2023/08/26 09:31:45;;;;;;;1.90;1.70;;;;;;;;;;5001332;28;20042;-76
2023/08/26 09:34:11;;;;;;;3.47;2.00;;;;;;;;;;5002577;28;20026;-73
2023/08/26 09:36:40;;;;;;;3.10;2.25;;;;;;;;;;5003561;28;20038;-74
2023/08/26 09:39:13;;;;;;;3.78;1.85;;;;;;;;;;5005014;28;20398;-77
2023/08/26 09:41:41;;;;;;;2.30;1.52;;;;;;;;;;5008396;28;20542;-78
2023/08/26 09:44:09;;;;;;;2.25;1.67;;;;;;;;;;5001215;28;21324;-78
2023/08/26 09:46:39;;;;;;;3.58;2.10;;;;;;;;;;5005739;28;20394;-78
2023/08/26 09:49:05;;;;;;;3.75;2.53;;;;;;;;;;5007369;28;20025;-77
2023/08/26 09:51:31;;;;;;;4.78;1.75;;;;;;;;;;5006715;28;20030;-76
2023/08/26 09:53:58;;;;;;;3.35;2.45;;;;;;;;;;5002354;28;20034;-76
2023/08/26 09:56:24;;;;;;;3.50;2.50;;;;;;;;;;5003356;28;20884;-76
2023/08/26 09:58:51;;;;;;;4.07;2.15;;;;;;;;;;5005688;28;20409;-76
2023/08/26 10:01:20;;;;;;;2.90;1.90;;;;;;;;;;5002760;28;20046;-75
2023/08/26 10:03:48;;;;;;;2.25;1.90;;;;;;;;;;4998370;28;20021;-79
2023/08/26 10:06:14;;;;;;;5.03;2.15;;;;;;;;;;5002468;28;20022;-79
2023/08/26 10:08:42;;;;;;;2.75;1.95;;;;;;;;;;5003604;28;20022;-79
2023/08/26 10:11:10;;;;;;;3.03;2.30;;;;;;;;;;5005001;28;20033;-79
2023/08/26 10:13:36;;;;;;;2.67;1.92;;;;;;;;;;5004365;28;20080;-79
2023/08/26 10:16:03;;;;;;;4.30;2.40;;;;;;;;;;5005805;28;20039;-81
2023/08/26 10:18:39;;;;;;;6.57;2.75;;;;;;;;;;5004833;28;20022;-81
2023/08/26 10:21:05;;;;;;;3.38;2.88;;;;;;;;;;4999475;28;20037;-80
2023/08/26 10:24:03;;;;;;;5.65;2.60;;;;;;;;;;5009009;28;20069;-81
2023/08/26 10:26:29;;;;;;;3.80;2.60;;;;;;;;;;4997965;28;20030;-81
2023/08/26 10:28:56;;;;;;;2.58;2.38;;;;;;;;;;5009000;28;20076;-81
2023/08/26 10:31:22;;;;;;;3.63;2.63;;;;;;;;;;5008915;28;20047;-79
2023/08/26 10:34:01;;;;;;;4.18;2.70;;;;;;;;;;5005985;28;20034;-82
2023/08/26 10:36:28;;;;;;;4.82;3.30;;;;;;;;;;5007609;28;20026;-81
2023/08/26 10:38:55;;;;;;;5.40;2.55;;;;;;;;;;5008681;28;20076;-82
2023/08/26 10:41:21;;;;;;;4.93;3.08;;;;;;;;;;5007900;28;20021;-81
2023/08/26 10:43:53;;;;;;;5.18;2.88;;;;;;;;;;5006552;28;20049;-82
2023/08/26 10:46:31;;;;;;;7.07;2.92;;;;;;;;;;5005097;28;20030;-81
2023/08/26 10:48:59;;;;;;;3.85;2.78;;;;;;;;;;5007189;28;20434;-82
2023/08/26 10:51:25;;;;;;;6.63;2.63;;;;;;;;;;5008134;28;20115;-81
2023/08/26 10:53:51;;;;;;;3.72;2.67;;;;;;;;;;5008511;28;20109;-81
2023/08/26 10:56:18;;;;;;;4.25;2.67;;;;;;;;;;5007127;28;20053;-79
2023/08/26 10:58:45;;;;;;;7.57;2.90;;;;;;;;;;5007105;28;20411;-78
2023/08/26 11:01:12;;;;;;;5.85;3.13;;;;;;;;;;5008527;28;20088;-81
2023/08/26 11:03:38;;;;;;;4.95;3.00;;;;;;;;;;5007318;28;20026;-81
2023/08/26 11:06:05;;;;;;;10.38;3.25;;;;;;;;;;5006950;28;20026;-82
2023/08/26 11:08:31;;;;;;;3.72;2.60;;;;;;;;;;5007162;28;20483;-82
2023/08/26 11:11:00;;;;;;;5.30;2.95;;;;;;;;;;5004842;28;20033;-76
2023/08/26 11:13:26;;;;;;;7.25;2.80;;;;;;;;;;4996918;28;20091;-84
2023/08/26 11:15:52;;;;;;;3.13;2.10;;;;;;;;;;5001721;28;20223;-74
2023/08/26 11:18:20;;;;;;;2.92;2.22;;;;;;;;;;5005348;28;20033;-75
2023/08/26 11:20:47;;;;;;;3.55;2.45;;;;;;;;;;5005064;28;20378;-75
2023/08/26 11:23:13;;;;;;;4.72;2.95;;;;;;;;;;4995189;28;20037;-86
2023/08/26 11:25:39;;;;;;;3.55;2.40;;;;;;;;;;4994439;28;20088;-78
2023/08/26 11:28:07;;;;;;;4.18;2.38;;;;;;;;;;4997590;28;20268;-79
2023/08/26 11:33:55;;;;;;;3.35;2.15;;;;;;;;;;5000006;28;20088;-82
2023/08/26 11:36:22;;;;;;;2.58;1.80;;;;;;;;;;5008080;28;20582;-80
2023/08/26 11:38:48;;;;;;;4.65;2.08;;;;;;;;;;5005008;28;20087;-83
2023/08/26 11:41:14;;;;;;;3.33;2.00;;;;;;;;;;5004052;28;20034;-81
2023/08/26 11:43:40;;;;;;;2.97;1.95;;;;;;;;;;5005007;28;20403;-82
2023/08/26 11:46:06;;;;;;;3.75;2.53;;;;;;;;;;5002145;28;20052;-81
2023/08/26 11:48:35;;;;;;;2.50;1.63;;;;;;;;;;4999674;28;20084;-80
2023/08/26 11:51:03;;;;;;;11.27;2.13;;;;;;;;;;5006260;28;20402;-80
2023/08/26 11:53:29;;;;;;;3.35;2.00;;;;;;;;;;5008743;28;20112;-80
2023/08/26 11:55:55;;;;;;;4.22;2.20;;;;;;;;;;5011497;28;20021;-80
2023/08/26 11:58:21;;;;;;;2.25;1.73;;;;;;;;;;5005991;28;20045;-79
2023/08/26 12:00:48;;;;;;;2.47;1.92;;;;;;;;;;5011976;28;20562;-80
2023/08/26 12:03:14;;;;;;;2.83;2.05;;;;;;;;;;5009980;28;20468;-80
2023/08/26 12:05:43;;;;;;;8.88;1.92;;;;;;;;;;5005761;28;20525;-81
2023/08/26 12:08:19;;;;;;;2.22;1.60;;;;;;;;;;5011311;28;20088;-80
2023/08/26 12:10:48;;;;;;;3.10;2.30;;;;;;;;;;5004150;28;20022;-80
2023/08/26 12:13:15;;;;;;;3.30;1.95;;;;;;;;;;5009635;28;20041;-80
2023/08/26 12:15:41;;;;;;;2.13;1.75;;;;;;;;;;5007615;28;20026;-78
2023/08/26 12:18:08;;;;;;;2.20;1.90;;;;;;;;;;5003535;28;20030;-78
2023/08/26 12:20:34;;;;;;;3.65;1.75;;;;;;;;;;5008061;28;20076;-80
2023/08/26 12:23:02;;;;;;;3.10;2.00;;;;;;;;;;5003183;28;20125;-80
2023/08/26 12:25:30;;;;;;;4.15;2.28;;;;;;;;;;5005003;28;20050;-81
2023/08/26 12:28:08;;;;;;;3.45;1.98;;;;;;;;;;5002555;28;20022;-82
2023/08/26 12:30:34;;;;;;;2.20;1.50;;;;;;;;;;5004606;28;20026;-81
2023/08/26 12:33:00;;;;;;;3.28;1.90;;;;;;;;;;5007361;28;20029;-81
2023/08/26 12:35:26;;;;;;;2.15;1.70;;;;;;;;;;5008447;28;20029;-81
2023/08/26 12:37:52;;;;;;;6.63;1.85;;;;;;;;;;5005894;28;20435;-81
2023/08/26 12:40:18;;;;;;;3.10;1.70;;;;;;;;;;5007910;28;20052;-81
2023/08/26 12:42:44;;;;;;;2.30;1.92;;;;;;;;;;5004167;28;20088;-82
2023/08/26 12:45:13;;;;;;;1.55;1.45;;;;;;;;;;5007864;28;20030;-82
2023/08/26 12:47:39;;;;;;;2.05;1.48;;;;;;;;;;5019987;28;20130;-82
2023/08/26 12:50:05;;;;;;;1.58;1.42;;;;;;;;;;5007833;28;20560;-81
2023/08/26 12:52:31;;;;;;;3.90;1.35;;;;;;;;;;5005554;28;20064;-81
2023/08/26 12:54:57;;;;;;;9.27;2.25;;;;;;;;;;5007556;28;20026;-80
2023/08/26 12:57:23;;;;;;;3.58;1.30;;;;;;;;;;5005567;28;20037;-81
2023/08/26 12:59:49;;;;;;;3.95;2.05;;;;;;;;;;5004375;28;20039;-80
2023/08/26 13:02:15;;;;;;;3.08;1.42;;;;;;;;;;5004607;28;20541;-81
2023/08/26 13:04:41;;;;;;;2.13;1.85;;;;;;;;;;5004501;28;20026;-79
2023/08/26 13:07:07;;;;;;;4.90;1.60;;;;;;;;;;5007014;28;20619;-81
2023/08/26 13:09:33;;;;;;;2.03;1.52;;;;;;;;;;5003148;28;20026;-81
2023/08/26 13:11:59;;;;;;;2.10;1.50;;;;;;;;;;5007053;28;20025;-80
2023/08/26 13:14:25;;;;;;;2.70;1.77;;;;;;;;;;5006760;28;20046;-79
2023/08/26 13:16:55;;;;;;;2.83;1.80;;;;;;;;;;5006046;28;20036;-83
2023/08/26 13:19:21;;;;;;;6.93;2.03;;;;;;;;;;5006496;28;20040;-77
2023/08/26 13:21:49;;;;;;;2.80;1.60;;;;;;;;;;5006183;28;20049;-85
2023/08/26 13:24:15;;;;;;;2.17;1.40;;;;;;;;;;5005024;28;20026;-79
2023/08/26 13:26:41;;;;;;;2.50;1.60;;;;;;;;;;5005732;28;20033;-78
2023/08/26 13:29:07;;;;;;;3.35;1.60;;;;;;;;;;5007328;28;20130;-81
2023/08/26 13:31:33;;;;;;;3.00;1.90;;;;;;;;;;5004199;28;20033;-85
2023/08/26 13:33:59;;;;;;;6.40;2.53;;;;;;;;;;4997185;28;20037;-85
2023/08/26 13:36:25;;;;;;;15.38;3.30;;;;;;;;;;5002881;28;20037;-85
2023/08/26 13:38:51;;;;;;;10.02;3.70;;;;;;;;;;5004304;28;20030;-87
2023/08/26 13:41:17;;;;;;;5.70;2.85;;;;;;;;;;5006679;28;20033;-87
2023/08/26 13:43:43;;;;;;;6.13;2.92;;;;;;;;;;5004454;28;20057;-86
2023/08/26 13:46:09;;;;;;;4.43;2.17;;;;;;;;;;5005973;28;20032;-85
2023/08/26 13:48:35;;;;;;;4.53;2.40;;;;;;;;;;5005816;28;20025;-85
2023/08/26 13:51:01;;;;;;;4.32;2.38;;;;;;;;;;5006393;28;20022;-83
2023/08/26 13:53:27;;;;;;;5.13;2.20;;;;;;;;;;5005483;28;20021;-83
2023/08/26 13:55:59;;;;;;;10.40;2.97;;;;;;;;;;5004311;28;20084;-84
2023/08/26 13:58:25;;;;;;;5.20;2.45;;;;;;;;;;4998953;28;20048;-86
2023/08/26 14:00:55;;;;;;;5.65;2.33;;;;;;;;;;5007188;28;20398;-88
2023/08/26 14:03:21;;;;;;;3.35;2.15;;;;;;;;;;5003303;28;20042;-85
2023/08/26 14:05:50;;;;;;;4.63;2.35;;;;;;;;;;5002602;28;20084;-87
2023/08/26 14:08:16;;;;;;;3.72;2.45;;;;;;;;;;5008166;28;20079;-85
2023/08/26 14:10:42;;;;;;;3.35;2.13;;;;;;;;;;5008381;28;20429;-85
2023/08/26 14:13:08;;;;;;;3.80;2.15;;;;;;;;;;5005610;28;20030;-78
2023/08/26 14:15:34;;;;;;;3.05;1.80;;;;;;;;;;5004932;28;20406;-85
2023/08/26 14:18:00;;;;;;;3.13;1.73;;;;;;;;;;5003767;28;20038;-89
2023/08/26 14:20:26;;;;;;;3.38;1.92;;;;;;;;;;4999418;28;20026;-83
2023/08/26 14:22:52;;;;;;;3.72;1.73;;;;;;;;;;5004077;28;20048;-82
2023/08/26 14:25:18;;;;;;;4.13;1.85;;;;;;;;;;5005816;28;20022;-82
2023/08/26 14:27:44;;;;;;;1.88;1.60;;;;;;;;;;5005399;28;20018;-81
2023/08/26 14:30:10;;;;;;;2.10;1.55;;;;;;;;;;5005483;28;20433;-82
2023/08/26 14:32:36;;;;;;;1.85;1.55;;;;;;;;;;5005592;28;20479;-81
2023/08/26 14:35:03;;;;;;;2.08;1.55;;;;;;;;;;5005715;28;20064;-79
2023/08/26 14:37:29;;;;;;;2.47;1.70;;;;;;;;;;5004826;28;20026;-81
2023/08/26 14:39:55;;;;;;;3.33;1.90;;;;;;;;;;5004705;28;20022;-81
2023/08/26 14:42:21;;;;;;;2.78;1.38;;;;;;;;;;5006890;28;20125;-81
2023/08/26 14:44:47;;;;;;;2.58;1.85;;;;;;;;;;5006992;28;20080;-81